createdAt,value
2019-03-13T00:00:26.884Z,98750
2019-03-13T00:05:26.887Z,98743
2019-03-13T00:10:26.882Z,98750
2019-03-13T00:15:26.887Z,98723
2019-03-13T00:20:26.890Z,98727
2019-03-13T00:25:26.912Z,98714
2019-03-13T00:30:26.894Z,98726
2019-03-13T00:35:26.902Z,98719
2019-03-13T00:40:26.887Z,98710
2019-03-13T00:45:26.896Z,98714
2019-03-13T00:50:26.902Z,98694
2019-03-13T00:55:26.923Z,98697
2019-03-13T01:00:26.881Z,98692
2019-03-13T01:05:26.927Z,98698
2019-03-13T01:10:26.926Z,98705
2019-03-13T01:15:26.909Z,98715
2019-03-13T01:20:26.913Z,98716
2019-03-13T01:25:26.887Z,98711
2019-03-13T01:30:26.923Z,98721
2019-03-13T01:35:26.921Z,98716
2019-03-13T01:40:26.926Z,98704
2019-03-13T01:45:26.940Z,98726
2019-03-13T01:50:26.933Z,98731
2019-03-13T01:55:26.934Z,98722
2019-03-13T02:00:26.926Z,98715
2019-03-13T02:05:26.937Z,98712
2019-03-13T02:10:26.939Z,98705
2019-03-13T02:15:26.932Z,98714
2019-03-13T02:20:26.954Z,98718
2019-03-13T02:25:26.962Z,98734
2019-03-13T02:30:26.950Z,98742
2019-03-13T02:35:26.977Z,98737
2019-03-13T02:40:26.929Z,98766
2019-03-13T02:45:26.958Z,98788
2019-03-13T02:50:26.963Z,98804
2019-03-13T02:55:26.967Z,98808
2019-03-13T03:00:26.961Z,98813
2019-03-13T03:05:26.977Z,98836
2019-03-13T03:10:26.936Z,98848
2019-03-13T03:15:26.981Z,98865
2019-03-13T03:20:26.967Z,98879
2019-03-13T03:25:27.000Z,98915
2019-03-13T03:30:27.072Z,98931
2019-03-13T03:35:26.995Z,98944
2019-03-13T03:40:26.965Z,98939
2019-03-13T03:45:26.998Z,98968
2019-03-13T03:50:26.988Z,98974
2019-03-13T03:55:27.007Z,98988
2019-03-13T04:00:26.960Z,99001
2019-03-13T04:05:26.988Z,99032
2019-03-13T04:10:27.023Z,99049
2019-03-13T04:15:26.961Z,99037
2019-03-13T04:20:26.998Z,99050
2019-03-13T04:25:27.016Z,99068
2019-03-13T04:30:26.977Z,99076
2019-03-13T04:35:26.981Z,99080
2019-03-13T04:40:27.022Z,99081
2019-03-13T04:45:27.017Z,99081
2019-03-13T04:50:27.008Z,99094
2019-03-13T04:55:27.030Z,99103
2019-03-13T05:00:27.025Z,99098
2019-03-13T05:05:27.014Z,99104
2019-03-13T05:10:27.008Z,99106
2019-03-13T05:15:27.018Z,99099
2019-03-13T05:20:27.043Z,99104
2019-03-13T05:25:27.026Z,99117
2019-03-13T05:30:27.015Z,99119
2019-03-13T05:35:27.044Z,99126
2019-03-13T05:40:27.033Z,99119
2019-03-13T05:45:27.027Z,99129
2019-03-13T05:50:27.052Z,99119
2019-03-13T05:55:27.032Z,99127
2019-03-13T06:00:27.040Z,99130
2019-03-13T06:05:27.038Z,99123
2019-03-13T06:10:27.039Z,99135
2019-03-13T06:15:27.045Z,99140
2019-03-13T06:20:27.048Z,99144
2019-03-13T06:25:27.081Z,99158
2019-03-13T06:30:27.019Z,99161
2019-03-13T06:35:27.061Z,99178
2019-03-13T06:40:27.025Z,99177
2019-03-13T06:45:27.068Z,99174
2019-03-13T06:50:27.070Z,99184
2019-03-13T06:55:27.061Z,99179
2019-03-13T07:00:27.074Z,99176
2019-03-13T07:05:27.060Z,99164
2019-03-13T07:10:27.080Z,99164
2019-03-13T07:15:27.068Z,99154
2019-03-13T07:20:27.098Z,99151
2019-03-13T07:25:27.069Z,99149
2019-03-13T07:30:27.082Z,99147
2019-03-13T07:35:27.084Z,99146
2019-03-13T07:40:27.065Z,99155
2019-03-13T07:45:27.095Z,99151
2019-03-13T07:50:27.079Z,99176
2019-03-13T07:55:27.113Z,99183
2019-03-13T08:00:27.064Z,99183
2019-03-13T08:05:27.095Z,99188
2019-03-13T08:10:27.060Z,99197
2019-03-13T08:15:27.115Z,99198
2019-03-13T08:20:27.066Z,99209
2019-03-13T08:25:27.113Z,99193
2019-03-13T08:30:27.108Z,99197
2019-03-13T08:35:27.116Z,99206
2019-03-13T08:40:27.113Z,99185
2019-03-13T08:45:27.114Z,99190
2019-03-13T08:50:27.123Z,99179
2019-03-13T08:55:27.125Z,99168
2019-03-13T09:00:27.114Z,99175
2019-03-13T09:05:27.131Z,99172
2019-03-13T09:10:27.132Z,99166
2019-03-13T09:15:27.137Z,99170
2019-03-13T09:20:27.139Z,99153
2019-03-13T09:25:27.128Z,99164
2019-03-13T09:30:27.142Z,99175
2019-03-13T09:35:27.142Z,99183
2019-03-13T09:40:27.146Z,99185
2019-03-13T09:45:27.104Z,99160
2019-03-13T09:50:27.160Z,99150
2019-03-13T09:55:27.145Z,99158
2019-03-13T10:00:27.149Z,99141
2019-03-13T10:05:27.151Z,99137
2019-03-13T10:10:27.149Z,99131
2019-03-13T10:15:27.169Z,99125
2019-03-13T10:20:27.148Z,99120
2019-03-13T10:25:27.242Z,99128
2019-03-13T10:30:27.179Z,99117
2019-03-13T10:35:27.247Z,99124
2019-03-13T10:40:27.327Z,99118
2019-03-13T10:45:27.185Z,99106
2019-03-13T10:50:27.206Z,99110
2019-03-13T10:55:27.135Z,99125
2019-03-13T11:00:27.170Z,99095
2019-03-13T11:05:27.156Z,99053
2019-03-13T11:10:27.173Z,99043
2019-03-13T11:15:27.184Z,99057
2019-03-13T11:20:27.177Z,99084
2019-03-13T11:25:27.186Z,99033
2019-03-13T11:30:27.148Z,99011
2019-03-13T11:35:27.200Z,99026
2019-03-13T11:40:27.190Z,99006
2019-03-13T11:45:27.193Z,98979
2019-03-13T11:50:27.279Z,98983
2019-03-13T11:55:27.161Z,98968
2019-03-13T12:00:27.203Z,98963
2019-03-13T12:05:27.160Z,98984
2019-03-13T12:10:27.214Z,98997
2019-03-13T12:15:27.208Z,99003
2019-03-13T12:20:27.200Z,99005
2019-03-13T12:25:27.203Z,99018
2019-03-13T12:30:27.226Z,99025
2019-03-13T12:35:27.221Z,99006
2019-03-13T12:40:27.178Z,99005
2019-03-13T12:45:27.223Z,99003
2019-03-13T12:50:27.237Z,99001
2019-03-13T12:55:27.221Z,98988
2019-03-13T13:00:27.191Z,99001
2019-03-13T13:05:27.237Z,98991
2019-03-13T13:10:27.230Z,98978
2019-03-13T13:15:27.199Z,98985
2019-03-13T13:20:27.249Z,98969
2019-03-13T13:25:27.232Z,98956
2019-03-13T13:30:27.254Z,98948
2019-03-13T13:35:27.256Z,98967
2019-03-13T13:40:27.241Z,98958
2019-03-13T13:45:27.235Z,98971
2019-03-13T13:50:27.247Z,98968
2019-03-13T13:55:27.265Z,98960
2019-03-13T14:00:27.244Z,98961
2019-03-13T14:05:27.223Z,98950
2019-03-13T14:10:27.257Z,98949
2019-03-13T14:15:27.259Z,98966
2019-03-13T14:20:27.281Z,98949
2019-03-13T14:25:27.228Z,98943
2019-03-13T14:30:27.275Z,98944
2019-03-13T14:35:27.268Z,98944
2019-03-13T14:40:27.279Z,98938
2019-03-13T14:45:27.275Z,98946
2019-03-13T14:50:27.291Z,98941
2019-03-13T14:55:27.384Z,98932
2019-03-13T15:00:27.298Z,98933
2019-03-13T15:05:27.321Z,98919
2019-03-13T15:10:27.275Z,98944
2019-03-13T15:15:27.282Z,98943
2019-03-13T15:20:27.304Z,98949
2019-03-13T15:25:27.295Z,98931
2019-03-13T15:30:27.258Z,98947
2019-03-13T15:35:27.309Z,98951
2019-03-13T15:40:27.268Z,98936
2019-03-13T15:45:27.300Z,98930
2019-03-13T15:50:27.305Z,98926
2019-03-13T15:55:27.280Z,98915
2019-03-13T16:00:27.321Z,98913
2019-03-13T16:05:27.282Z,98911
2019-03-13T16:10:27.315Z,98899
2019-03-13T16:15:27.318Z,98886
2019-03-13T16:20:27.309Z,98900
2019-03-13T16:25:27.319Z,98896
2019-03-13T16:30:27.316Z,98884
2019-03-13T16:35:27.341Z,98882
2019-03-13T16:40:27.282Z,98870
2019-03-13T16:45:27.322Z,98865
2019-03-13T16:50:27.321Z,98864
2019-03-13T16:55:27.317Z,98860
2019-03-13T17:00:27.335Z,98866
2019-03-13T17:05:27.302Z,98871
2019-03-13T17:10:27.342Z,98868
2019-03-13T17:15:27.346Z,98875
2019-03-13T17:20:27.353Z,98883
2019-03-13T17:25:27.312Z,98882
2019-03-13T17:30:27.352Z,98875
2019-03-13T17:35:27.356Z,98884
2019-03-13T17:40:27.381Z,98867
2019-03-13T17:45:27.356Z,98867
2019-03-13T17:50:27.371Z,98854
2019-03-13T17:55:27.352Z,98852
2019-03-13T18:00:27.370Z,98855
2019-03-13T18:05:27.321Z,98847
2019-03-13T18:10:27.366Z,98854
2019-03-13T18:15:27.385Z,98855
2019-03-13T18:20:27.327Z,98860
2019-03-13T18:25:27.377Z,98851
2019-03-13T18:30:27.367Z,98852
2019-03-13T18:35:27.396Z,98840
2019-03-13T18:40:27.377Z,98854
2019-03-13T18:45:27.383Z,98859
2019-03-13T18:50:27.400Z,98853
2019-03-13T18:55:27.352Z,98863
2019-03-13T19:00:27.386Z,98864
2019-03-13T19:05:27.393Z,98873
2019-03-13T19:10:27.352Z,98859
2019-03-13T19:15:27.379Z,98845
2019-03-13T19:20:27.389Z,98842
2019-03-13T19:25:27.413Z,98859
2019-03-13T19:30:27.397Z,98870
2019-03-13T19:35:27.412Z,98860
2019-03-13T19:40:27.406Z,98857
2019-03-13T19:45:27.405Z,98850
2019-03-13T19:50:28.292Z,98864
2019-03-13T19:55:27.397Z,98863
2019-03-13T20:00:27.411Z,98880
2019-03-13T20:05:27.380Z,98878
2019-03-13T20:10:27.427Z,98873
2019-03-13T20:15:27.413Z,98877
2019-03-13T20:20:27.431Z,98861
2019-03-13T20:25:27.435Z,98864
2019-03-13T20:30:27.430Z,98856
2019-03-13T20:35:27.432Z,98858
2019-03-13T20:40:27.400Z,98861
2019-03-13T20:45:27.430Z,98865
2019-03-13T20:50:36.383Z,98867
2019-03-13T20:55:27.422Z,98865
2019-03-13T21:00:27.408Z,98862
2019-03-13T21:05:27.451Z,98852
2019-03-13T21:10:27.439Z,98857
2019-03-13T21:15:27.460Z,98863
2019-03-13T21:20:27.455Z,98858
2019-03-13T21:25:27.445Z,98860
2019-03-13T21:30:27.478Z,98860
2019-03-13T21:35:27.647Z,98862
2019-03-13T21:40:27.456Z,98872
2019-03-13T21:45:39.923Z,98870
2019-03-13T21:50:27.428Z,98884
2019-03-13T21:55:27.994Z,98879
2019-03-13T22:00:27.478Z,98849
2019-03-13T22:05:27.774Z,98861
2019-03-13T22:10:27.480Z,98858
2019-03-13T22:15:27.464Z,98848
2019-03-13T22:20:27.465Z,98835
2019-03-13T22:25:27.480Z,98847
2019-03-13T22:30:28.931Z,98874
2019-03-13T22:35:27.474Z,98875
2019-03-13T22:40:27.500Z,98886
2019-03-13T22:45:27.491Z,98873
2019-03-13T22:50:27.491Z,98873
2019-03-13T22:55:27.580Z,98871
2019-03-13T23:00:27.490Z,98874
2019-03-13T23:05:27.495Z,98892
2019-03-13T23:10:27.494Z,98885
2019-03-13T23:15:27.490Z,98886
2019-03-13T23:20:27.519Z,98875
2019-03-13T23:25:27.519Z,98869
2019-03-13T23:30:27.505Z,98871
2019-03-13T23:35:27.539Z,98882
2019-03-13T23:40:27.471Z,98881
2019-03-13T23:45:27.522Z,98895
2019-03-13T23:50:27.509Z,98902
2019-03-13T23:55:27.523Z,98900
